sensor_id;sensor_type;location;lat;lon;timestamp;temperature;humidity
44729;DHT22;30457;53.590;9.922;2022-11-20T00:02:10;6.60;56.50
44729;DHT22;30457;53.590;9.922;2022-11-20T00:06:36;6.60;57.50
44729;DHT22;30457;53.590;9.922;2022-11-20T00:11:06;6.60;57.00
44729;DHT22;30457;53.590;9.922;2022-11-20T00:15:32;6.60;57.10
44729;DHT22;30457;53.590;9.922;2022-11-20T00:19:57;6.60;57.20
44729;DHT22;30457;53.590;9.922;2022-11-20T00:24:23;6.50;57.20
44729;DHT22;30457;53.590;9.922;2022-11-20T00:28:57;6.60;56.90
44729;DHT22;30457;53.590;9.922;2022-11-20T00:33:23;6.50;57.30
44729;DHT22;30457;53.590;9.922;2022-11-20T00:37:48;6.50;57.30
44729;DHT22;30457;53.590;9.922;2022-11-20T00:42:14;6.60;57.50
44729;DHT22;30457;53.590;9.922;2022-11-20T00:46:40;6.60;57.50
44729;DHT22;30457;53.590;9.922;2022-11-20T00:51:05;6.50;57.50
44729;DHT22;30457;53.590;9.922;2022-11-20T00:55:31;6.50;57.50
44729;DHT22;30457;53.590;9.922;2022-11-20T00:59:57;6.50;57.40
44729;DHT22;30457;53.590;9.922;2022-11-20T01:04:22;6.50;57.40
44729;DHT22;30457;53.590;9.922;2022-11-20T01:08:49;6.50;57.50
44729;DHT22;30457;53.590;9.922;2022-11-20T01:13:15;6.50;57.50
44729;DHT22;30457;53.590;9.922;2022-11-20T01:17:59;6.50;57.60
44729;DHT22;30457;53.590;9.922;2022-11-20T01:22:24;6.50;57.70
44729;DHT22;30457;53.590;9.922;2022-11-20T01:26:51;6.50;57.70
44729;DHT22;30457;53.590;9.922;2022-11-20T01:31:21;6.50;57.80
44729;DHT22;30457;53.590;9.922;2022-11-20T01:35:47;6.50;57.90
44729;DHT22;30457;53.590;9.922;2022-11-20T01:40:12;6.50;57.90
44729;DHT22;30457;53.590;9.922;2022-11-20T01:44:51;6.50;57.90
44729;DHT22;30457;53.590;9.922;2022-11-20T01:49:21;6.50;58.10
44729;DHT22;30457;53.590;9.922;2022-11-20T01:53:50;6.50;58.10
44729;DHT22;30457;53.590;9.922;2022-11-20T01:58:19;6.50;58.10
44729;DHT22;30457;53.590;9.922;2022-11-20T02:02:53;6.40;58.20
44729;DHT22;30457;53.590;9.922;2022-11-20T02:07:21;6.40;58.30
44729;DHT22;30457;53.590;9.922;2022-11-20T02:11:48;6.40;58.80
44729;DHT22;30457;53.590;9.922;2022-11-20T02:16:25;6.40;58.40
44729;DHT22;30457;53.590;9.922;2022-11-20T02:21:15;6.40;58.20
44729;DHT22;30457;53.590;9.922;2022-11-20T02:25:45;6.40;58.70
44729;DHT22;30457;53.590;9.922;2022-11-20T02:30:12;6.40;58.60
44729;DHT22;30457;53.590;9.922;2022-11-20T02:34:38;6.40;58.60
44729;DHT22;30457;53.590;9.922;2022-11-20T02:39:04;6.40;58.50
44729;DHT22;30457;53.590;9.922;2022-11-20T02:43:30;6.40;58.50
44729;DHT22;30457;53.590;9.922;2022-11-20T02:47:56;6.40;58.50
44729;DHT22;30457;53.590;9.922;2022-11-20T02:52:22;6.40;58.70
44729;DHT22;30457;53.590;9.922;2022-11-20T02:56:48;6.40;58.60
44729;DHT22;30457;53.590;9.922;2022-11-20T03:01:13;6.40;58.60
44729;DHT22;30457;53.590;9.922;2022-11-20T03:05:39;6.40;58.60
44729;DHT22;30457;53.590;9.922;2022-11-20T03:10:05;6.40;58.50
44729;DHT22;30457;53.590;9.922;2022-11-20T03:14:31;6.40;58.50
44729;DHT22;30457;53.590;9.922;2022-11-20T03:18:57;6.40;58.50
44729;DHT22;30457;53.590;9.922;2022-11-20T03:23:22;6.40;58.50
44729;DHT22;30457;53.590;9.922;2022-11-20T03:27:48;6.30;58.20
44729;DHT22;30457;53.590;9.922;2022-11-20T03:32:13;6.40;58.70
44729;DHT22;30457;53.590;9.922;2022-11-20T03:36:41;6.40;58.60
44729;DHT22;30457;53.590;9.922;2022-11-20T03:41:12;6.30;58.60
44729;DHT22;30457;53.590;9.922;2022-11-20T03:45:38;6.30;58.60
44729;DHT22;30457;53.590;9.922;2022-11-20T03:50:04;6.30;58.70
44729;DHT22;30457;53.590;9.922;2022-11-20T03:54:30;6.30;58.80
44729;DHT22;30457;53.590;9.922;2022-11-20T03:58:56;6.30;58.90
44729;DHT22;30457;53.590;9.922;2022-11-20T04:03:21;6.30;58.90
44729;DHT22;30457;53.590;9.922;2022-11-20T04:07:47;6.40;59.00
44729;DHT22;30457;53.590;9.922;2022-11-20T04:12:12;6.40;58.90
44729;DHT22;30457;53.590;9.922;2022-11-20T04:16:38;6.40;58.70
44729;DHT22;30457;53.590;9.922;2022-11-20T04:21:05;6.40;58.60
44729;DHT22;30457;53.590;9.922;2022-11-20T04:25:30;6.30;58.60
44729;DHT22;30457;53.590;9.922;2022-11-20T04:29:56;6.30;58.70
44729;DHT22;30457;53.590;9.922;2022-11-20T04:34:21;6.30;58.70
44729;DHT22;30457;53.590;9.922;2022-11-20T04:38:51;6.30;58.70
44729;DHT22;30457;53.590;9.922;2022-11-20T04:43:16;6.30;58.80
44729;DHT22;30457;53.590;9.922;2022-11-20T04:47:42;6.30;58.90
44729;DHT22;30457;53.590;9.922;2022-11-20T04:52:07;6.30;58.80
44729;DHT22;30457;53.590;9.922;2022-11-20T04:56:33;6.30;58.80
44729;DHT22;30457;53.590;9.922;2022-11-20T05:01:02;6.30;58.70
44729;DHT22;30457;53.590;9.922;2022-11-20T05:05:28;6.30;58.70
44729;DHT22;30457;53.590;9.922;2022-11-20T05:09:53;6.30;58.60
44729;DHT22;30457;53.590;9.922;2022-11-20T05:14:19;6.30;58.60
44729;DHT22;30457;53.590;9.922;2022-11-20T05:18:45;6.30;58.60
44729;DHT22;30457;53.590;9.922;2022-11-20T05:23:10;6.20;58.60
44729;DHT22;30457;53.590;9.922;2022-11-20T05:27:36;6.20;58.90
44729;DHT22;30457;53.590;9.922;2022-11-20T05:32:02;6.20;58.70
44729;DHT22;30457;53.590;9.922;2022-11-20T05:36:27;6.20;58.70
44729;DHT22;30457;53.590;9.922;2022-11-20T05:40:53;6.20;58.70
44729;DHT22;30457;53.590;9.922;2022-11-20T05:45:18;6.20;58.60
44729;DHT22;30457;53.590;9.922;2022-11-20T05:49:44;6.10;58.20
44729;DHT22;30457;53.590;9.922;2022-11-20T05:54:09;6.10;58.70
44729;DHT22;30457;53.590;9.922;2022-11-20T05:58:36;6.10;58.50
44729;DHT22;30457;53.590;9.922;2022-11-20T06:03:02;6.10;58.90
44729;DHT22;30457;53.590;9.922;2022-11-20T06:07:27;6.10;59.00
44729;DHT22;30457;53.590;9.922;2022-11-20T06:11:53;6.00;59.00
44729;DHT22;30457;53.590;9.922;2022-11-20T06:16:19;6.00;59.00
44729;DHT22;30457;53.590;9.922;2022-11-20T06:20:46;6.00;58.60
44729;DHT22;30457;53.590;9.922;2022-11-20T06:25:12;6.00;59.10
44729;DHT22;30457;53.590;9.922;2022-11-20T06:29:38;6.00;59.00
44729;DHT22;30457;53.590;9.922;2022-11-20T06:34:04;6.00;59.00
44729;DHT22;30457;53.590;9.922;2022-11-20T06:38:31;6.00;59.20
44729;DHT22;30457;53.590;9.922;2022-11-20T06:42:56;6.00;59.20
44729;DHT22;30457;53.590;9.922;2022-11-20T06:47:22;6.00;59.30
44729;DHT22;30457;53.590;9.922;2022-11-20T06:51:47;6.00;58.70
44729;DHT22;30457;53.590;9.922;2022-11-20T06:56:13;5.90;59.20
44729;DHT22;30457;53.590;9.922;2022-11-20T07:00:40;6.00;59.10
44729;DHT22;30457;53.590;9.922;2022-11-20T07:05:06;5.90;59.20
44729;DHT22;30457;53.590;9.922;2022-11-20T07:09:32;5.90;59.20
44729;DHT22;30457;53.590;9.922;2022-11-20T07:13:59;5.90;59.30
44729;DHT22;30457;53.590;9.922;2022-11-20T07:18:24;5.90;59.00
44729;DHT22;30457;53.590;9.922;2022-11-20T07:22:57;5.90;59.40
44729;DHT22;30457;53.590;9.922;2022-11-20T07:27:22;5.90;59.50
44729;DHT22;30457;53.590;9.922;2022-11-20T07:31:48;6.00;59.40
44729;DHT22;30457;53.590;9.922;2022-11-20T07:36:14;6.00;59.50
44729;DHT22;30457;53.590;9.922;2022-11-20T07:40:40;6.00;59.60
44729;DHT22;30457;53.590;9.922;2022-11-20T07:45:05;6.00;59.60
44729;DHT22;30457;53.590;9.922;2022-11-20T07:49:31;6.00;59.60
44729;DHT22;30457;53.590;9.922;2022-11-20T07:53:57;6.00;59.50
44729;DHT22;30457;53.590;9.922;2022-11-20T07:58:22;6.00;59.60
44729;DHT22;30457;53.590;9.922;2022-11-20T08:02:48;6.10;59.70
44729;DHT22;30457;53.590;9.922;2022-11-20T08:07:14;6.10;59.20
44729;DHT22;30457;53.590;9.922;2022-11-20T08:11:39;6.10;59.70
44729;DHT22;30457;53.590;9.922;2022-11-20T08:16:24;6.20;59.60
44729;DHT22;30457;53.590;9.922;2022-11-20T08:20:49;6.20;59.50
44729;DHT22;30457;53.590;9.922;2022-11-20T08:25:15;6.20;59.10
44729;DHT22;30457;53.590;9.922;2022-11-20T08:29:40;6.20;59.60
44729;DHT22;30457;53.590;9.922;2022-11-20T08:34:06;6.20;59.50
44729;DHT22;30457;53.590;9.922;2022-11-20T08:38:32;6.20;59.50
44729;DHT22;30457;53.590;9.922;2022-11-20T08:42:58;6.30;59.40
44729;DHT22;30457;53.590;9.922;2022-11-20T08:47:23;6.30;59.40
44729;DHT22;30457;53.590;9.922;2022-11-20T08:51:49;6.30;59.30
44729;DHT22;30457;53.590;9.922;2022-11-20T08:56:17;6.30;59.40
44729;DHT22;30457;53.590;9.922;2022-11-20T09:00:43;6.30;59.50
44729;DHT22;30457;53.590;9.922;2022-11-20T09:05:08;6.40;59.40
44729;DHT22;30457;53.590;9.922;2022-11-20T09:09:34;6.50;59.40
44729;DHT22;30457;53.590;9.922;2022-11-20T09:14:00;6.50;59.30
44729;DHT22;30457;53.590;9.922;2022-11-20T09:18:28;6.50;59.50
44729;DHT22;30457;53.590;9.922;2022-11-20T09:22:54;6.50;59.50
44729;DHT22;30457;53.590;9.922;2022-11-20T09:27:19;6.60;59.40
44729;DHT22;30457;53.590;9.922;2022-11-20T09:31:48;6.60;59.50
44729;DHT22;30457;53.590;9.922;2022-11-20T09:36:14;6.80;58.70
44729;DHT22;30457;53.590;9.922;2022-11-20T09:40:47;6.70;58.90
44729;DHT22;30457;53.590;9.922;2022-11-20T09:50:34;6.70;58.80
44729;DHT22;30457;53.590;9.922;2022-11-20T09:55:02;6.60;58.80
44729;DHT22;30457;53.590;9.922;2022-11-20T09:59:40;6.70;59.10
44729;DHT22;30457;53.590;9.922;2022-11-20T10:04:13;6.70;59.10
44729;DHT22;30457;53.590;9.922;2022-11-20T10:13:51;6.70;59.10
44729;DHT22;30457;53.590;9.922;2022-11-20T10:18:23;6.70;59.30
44729;DHT22;30457;53.590;9.922;2022-11-20T10:28:18;6.80;59.40
44729;DHT22;30457;53.590;9.922;2022-11-20T10:32:52;7.00;58.90
44729;DHT22;30457;53.590;9.922;2022-11-20T10:37:23;7.00;59.20
44729;DHT22;30457;53.590;9.922;2022-11-20T10:41:52;7.00;59.20
44729;DHT22;30457;53.590;9.922;2022-11-20T10:46:22;7.10;59.20
44729;DHT22;30457;53.590;9.922;2022-11-20T10:51:10;7.20;58.90
44729;DHT22;30457;53.590;9.922;2022-11-20T10:56:05;7.30;58.20
44729;DHT22;30457;53.590;9.922;2022-11-20T11:00:33;7.00;58.30
44729;DHT22;30457;53.590;9.922;2022-11-20T11:05:04;7.20;58.30
44729;DHT22;30457;53.590;9.922;2022-11-20T11:09:48;7.20;58.20
44729;DHT22;30457;53.590;9.922;2022-11-20T11:14:15;7.30;58.30
44729;DHT22;30457;53.590;9.922;2022-11-20T11:18:41;7.30;58.30
44729;DHT22;30457;53.590;9.922;2022-11-20T11:23:30;7.30;58.30
44729;DHT22;30457;53.590;9.922;2022-11-20T11:28:00;7.40;58.00
44729;DHT22;30457;53.590;9.922;2022-11-20T11:32:26;7.50;58.00
44729;DHT22;30457;53.590;9.922;2022-11-20T11:36:57;7.50;57.80
44729;DHT22;30457;53.590;9.922;2022-11-20T11:41:25;7.50;57.70
44729;DHT22;30457;53.590;9.922;2022-11-20T11:45:54;7.50;57.50
44729;DHT22;30457;53.590;9.922;2022-11-20T11:50:25;7.60;57.30
44729;DHT22;30457;53.590;9.922;2022-11-20T11:55:02;7.60;57.20
44729;DHT22;30457;53.590;9.922;2022-11-20T11:59:57;7.60;57.40
44729;DHT22;30457;53.590;9.922;2022-11-20T12:04:42;7.60;57.00
44729;DHT22;30457;53.590;9.922;2022-11-20T12:09:10;7.60;56.90
44729;DHT22;30457;53.590;9.922;2022-11-20T12:13:54;7.70;57.10
44729;DHT22;30457;53.590;9.922;2022-11-20T12:18:22;7.70;57.00
44729;DHT22;30457;53.590;9.922;2022-11-20T12:23:02;7.70;56.90
44729;DHT22;30457;53.590;9.922;2022-11-20T12:27:41;7.70;57.00
44729;DHT22;30457;53.590;9.922;2022-11-20T12:36:49;7.80;57.10
44729;DHT22;30457;53.590;9.922;2022-11-20T12:46:36;7.80;57.40
44729;DHT22;30457;53.590;9.922;2022-11-20T12:56:21;8.00;56.70
44729;DHT22;30457;53.590;9.922;2022-11-20T13:01:00;8.10;56.60
44729;DHT22;30457;53.590;9.922;2022-11-20T13:09:59;8.20;56.00
44729;DHT22;30457;53.590;9.922;2022-11-20T13:14:42;8.20;56.10
44729;DHT22;30457;53.590;9.922;2022-11-20T13:19:13;8.20;55.20
44729;DHT22;30457;53.590;9.922;2022-11-20T13:23:39;8.20;55.70
44729;DHT22;30457;53.590;9.922;2022-11-20T13:28:29;8.20;55.50
44729;DHT22;30457;53.590;9.922;2022-11-20T13:37:35;8.30;55.10
44729;DHT22;30457;53.590;9.922;2022-11-20T13:42:20;8.30;55.40
44729;DHT22;30457;53.590;9.922;2022-11-20T13:46:48;8.30;55.40
44729;DHT22;30457;53.590;9.922;2022-11-20T13:56:02;8.30;55.50
44729;DHT22;30457;53.590;9.922;2022-11-20T14:00:30;8.30;55.40
44729;DHT22;30457;53.590;9.922;2022-11-20T14:05:00;8.20;55.30
44729;DHT22;30457;53.590;9.922;2022-11-20T14:09:30;8.20;55.20
44729;DHT22;30457;53.590;9.922;2022-11-20T14:14:13;8.10;55.40
44729;DHT22;30457;53.590;9.922;2022-11-20T14:18:40;8.10;55.40
44729;DHT22;30457;53.590;9.922;2022-11-20T14:23:10;8.10;55.40
44729;DHT22;30457;53.590;9.922;2022-11-20T14:27:37;8.10;55.30
44729;DHT22;30457;53.590;9.922;2022-11-20T14:32:04;8.10;55.30
44729;DHT22;30457;53.590;9.922;2022-11-20T14:36:30;8.10;55.30
44729;DHT22;30457;53.590;9.922;2022-11-20T14:41:07;8.10;55.40
44729;DHT22;30457;53.590;9.922;2022-11-20T14:45:33;8.10;55.10
44729;DHT22;30457;53.590;9.922;2022-11-20T14:50:00;8.00;55.10
44729;DHT22;30457;53.590;9.922;2022-11-20T14:54:26;8.00;55.00
44729;DHT22;30457;53.590;9.922;2022-11-20T14:58:59;7.90;55.00
44729;DHT22;30457;53.590;9.922;2022-11-20T15:03:40;7.90;54.80
44729;DHT22;30457;53.590;9.922;2022-11-20T15:08:08;7.80;54.80
44729;DHT22;30457;53.590;9.922;2022-11-20T15:12:37;7.80;55.00
44729;DHT22;30457;53.590;9.922;2022-11-20T15:17:03;7.70;55.00
44729;DHT22;30457;53.590;9.922;2022-11-20T15:21:30;7.60;55.10
44729;DHT22;30457;53.590;9.922;2022-11-20T15:25:55;7.60;55.20
44729;DHT22;30457;53.590;9.922;2022-11-20T15:30:21;7.50;55.20
44729;DHT22;30457;53.590;9.922;2022-11-20T15:34:47;7.40;55.30
44729;DHT22;30457;53.590;9.922;2022-11-20T15:39:13;7.60;55.80
44729;DHT22;30457;53.590;9.922;2022-11-20T15:43:38;7.40;55.90
44729;DHT22;30457;53.590;9.922;2022-11-20T15:48:05;7.30;56.00
44729;DHT22;30457;53.590;9.922;2022-11-20T15:52:34;7.30;56.00
44729;DHT22;30457;53.590;9.922;2022-11-20T15:56:59;7.30;56.30
44729;DHT22;30457;53.590;9.922;2022-11-20T16:01:26;7.30;56.50
44729;DHT22;30457;53.590;9.922;2022-11-20T16:05:51;7.30;56.40
44729;DHT22;30457;53.590;9.922;2022-11-20T16:10:18;7.30;56.30
44729;DHT22;30457;53.590;9.922;2022-11-20T16:14:43;7.30;56.10
44729;DHT22;30457;53.590;9.922;2022-11-20T16:19:27;7.30;56.10
44729;DHT22;30457;53.590;9.922;2022-11-20T16:23:53;7.30;56.10
44729;DHT22;30457;53.590;9.922;2022-11-20T16:28:19;7.30;56.10
44729;DHT22;30457;53.590;9.922;2022-11-20T16:32:44;7.30;56.30
44729;DHT22;30457;53.590;9.922;2022-11-20T16:37:10;7.30;56.50
44729;DHT22;30457;53.590;9.922;2022-11-20T16:41:36;7.30;57.10
44729;DHT22;30457;53.590;9.922;2022-11-20T16:46:03;7.30;56.60
44729;DHT22;30457;53.590;9.922;2022-11-20T16:50:29;7.30;56.40
44729;DHT22;30457;53.590;9.922;2022-11-20T16:54:55;7.30;56.40
44729;DHT22;30457;53.590;9.922;2022-11-20T16:59:20;7.20;56.50
44729;DHT22;30457;53.590;9.922;2022-11-20T17:03:53;7.20;56.60
44729;DHT22;30457;53.590;9.922;2022-11-20T17:08:19;7.20;57.10
44729;DHT22;30457;53.590;9.922;2022-11-20T17:12:44;7.20;56.30
44729;DHT22;30457;53.590;9.922;2022-11-20T17:17:10;7.20;56.30
44729;DHT22;30457;53.590;9.922;2022-11-20T17:21:36;7.20;56.40
44729;DHT22;30457;53.590;9.922;2022-11-20T17:26:04;7.20;56.50
44729;DHT22;30457;53.590;9.922;2022-11-20T17:30:30;7.10;56.70
44729;DHT22;30457;53.590;9.922;2022-11-20T17:34:55;7.10;56.70
44729;DHT22;30457;53.590;9.922;2022-11-20T17:39:23;7.10;56.50
44729;DHT22;30457;53.590;9.922;2022-11-20T17:43:49;7.10;56.40
44729;DHT22;30457;53.590;9.922;2022-11-20T17:48:17;7.10;56.60
44729;DHT22;30457;53.590;9.922;2022-11-20T17:52:42;7.00;56.60
44729;DHT22;30457;53.590;9.922;2022-11-20T17:57:08;7.00;56.50
44729;DHT22;30457;53.590;9.922;2022-11-20T18:01:52;7.00;56.40
44729;DHT22;30457;53.590;9.922;2022-11-20T18:06:21;7.00;56.50
44729;DHT22;30457;53.590;9.922;2022-11-20T18:10:46;6.90;56.50
44729;DHT22;30457;53.590;9.922;2022-11-20T18:15:12;6.90;56.50
44729;DHT22;30457;53.590;9.922;2022-11-20T18:19:43;6.80;56.50
44729;DHT22;30457;53.590;9.922;2022-11-20T18:24:10;6.80;56.70
44729;DHT22;30457;53.590;9.922;2022-11-20T18:28:36;6.80;56.70
44729;DHT22;30457;53.590;9.922;2022-11-20T18:33:03;6.90;56.80
44729;DHT22;30457;53.590;9.922;2022-11-20T18:37:30;6.80;56.80
44729;DHT22;30457;53.590;9.922;2022-11-20T18:41:56;6.80;57.00
44729;DHT22;30457;53.590;9.922;2022-11-20T18:46:40;6.80;57.00
44729;DHT22;30457;53.590;9.922;2022-11-20T18:51:07;6.70;57.10
44729;DHT22;30457;53.590;9.922;2022-11-20T18:55:34;6.80;57.10
44729;DHT22;30457;53.590;9.922;2022-11-20T19:00:00;6.70;57.30
44729;DHT22;30457;53.590;9.922;2022-11-20T19:04:25;6.70;57.40
44729;DHT22;30457;53.590;9.922;2022-11-20T19:08:52;6.60;56.90
44729;DHT22;30457;53.590;9.922;2022-11-20T19:13:18;6.70;57.40
44729;DHT22;30457;53.590;9.922;2022-11-20T19:17:44;6.60;57.30
44729;DHT22;30457;53.590;9.922;2022-11-20T19:22:10;6.60;57.40
44729;DHT22;30457;53.590;9.922;2022-11-20T19:26:36;6.60;57.30
44729;DHT22;30457;53.590;9.922;2022-11-20T19:31:07;6.50;57.30
44729;DHT22;30457;53.590;9.922;2022-11-20T19:35:33;6.50;57.30
44729;DHT22;30457;53.590;9.922;2022-11-20T19:40:00;6.50;57.40
44729;DHT22;30457;53.590;9.922;2022-11-20T19:44:28;6.50;57.60
44729;DHT22;30457;53.590;9.922;2022-11-20T19:48:54;6.50;57.60
44729;DHT22;30457;53.590;9.922;2022-11-20T19:53:20;6.40;57.50
44729;DHT22;30457;53.590;9.922;2022-11-20T19:57:46;6.50;57.50
44729;DHT22;30457;53.590;9.922;2022-11-20T20:02:11;6.50;57.50
44729;DHT22;30457;53.590;9.922;2022-11-20T20:06:37;6.50;57.40
44729;DHT22;30457;53.590;9.922;2022-11-20T20:11:18;6.50;57.40
44729;DHT22;30457;53.590;9.922;2022-11-20T20:15:44;6.50;57.40
44729;DHT22;30457;53.590;9.922;2022-11-20T20:20:10;6.40;57.40
44729;DHT22;30457;53.590;9.922;2022-11-20T20:24:35;6.40;57.40
44729;DHT22;30457;53.590;9.922;2022-11-20T20:29:01;6.40;57.30
44729;DHT22;30457;53.590;9.922;2022-11-20T20:33:27;6.30;57.30
44729;DHT22;30457;53.590;9.922;2022-11-20T20:37:53;6.30;57.20
44729;DHT22;30457;53.590;9.922;2022-11-20T20:42:19;6.20;56.60
44729;DHT22;30457;53.590;9.922;2022-11-20T20:46:45;6.20;57.00
44729;DHT22;30457;53.590;9.922;2022-11-20T20:51:10;6.10;57.00
44729;DHT22;30457;53.590;9.922;2022-11-20T20:55:36;6.10;57.10
44729;DHT22;30457;53.590;9.922;2022-11-20T21:00:03;6.00;57.20
44729;DHT22;30457;53.590;9.922;2022-11-20T21:04:29;6.00;56.70
44729;DHT22;30457;53.590;9.922;2022-11-20T21:08:55;5.90;57.10
44729;DHT22;30457;53.590;9.922;2022-11-20T21:13:22;5.90;57.20
44729;DHT22;30457;53.590;9.922;2022-11-20T21:17:48;5.90;57.10
44729;DHT22;30457;53.590;9.922;2022-11-20T21:22:13;5.80;57.00
44729;DHT22;30457;53.590;9.922;2022-11-20T21:26:39;5.80;57.00
44729;DHT22;30457;53.590;9.922;2022-11-20T21:31:19;5.80;57.00
44729;DHT22;30457;53.590;9.922;2022-11-20T21:35:46;5.70;57.00
44729;DHT22;30457;53.590;9.922;2022-11-20T21:40:11;5.70;57.00
44729;DHT22;30457;53.590;9.922;2022-11-20T21:44:37;5.60;56.90
44729;DHT22;30457;53.590;9.922;2022-11-20T21:49:03;5.60;56.90
44729;DHT22;30457;53.590;9.922;2022-11-20T21:53:28;5.50;57.00
44729;DHT22;30457;53.590;9.922;2022-11-20T21:57:54;5.50;57.00
44729;DHT22;30457;53.590;9.922;2022-11-20T22:02:19;5.50;57.00
44729;DHT22;30457;53.590;9.922;2022-11-20T22:06:45;5.40;57.00
44729;DHT22;30457;53.590;9.922;2022-11-20T22:11:14;5.40;57.00
44729;DHT22;30457;53.590;9.922;2022-11-20T22:15:40;5.30;57.00
44729;DHT22;30457;53.590;9.922;2022-11-20T22:20:07;5.20;57.00
44729;DHT22;30457;53.590;9.922;2022-11-20T22:24:33;5.20;56.90
44729;DHT22;30457;53.590;9.922;2022-11-20T22:28:58;5.20;56.90
44729;DHT22;30457;53.590;9.922;2022-11-20T22:33:26;5.10;56.80
44729;DHT22;30457;53.590;9.922;2022-11-20T22:37:52;5.10;56.80
44729;DHT22;30457;53.590;9.922;2022-11-20T22:42:17;5.00;56.80
44729;DHT22;30457;53.590;9.922;2022-11-20T22:46:43;5.00;57.00
44729;DHT22;30457;53.590;9.922;2022-11-20T22:51:13;4.90;57.10
44729;DHT22;30457;53.590;9.922;2022-11-20T22:55:39;4.90;57.10
44729;DHT22;30457;53.590;9.922;2022-11-20T23:00:05;4.80;57.10
44729;DHT22;30457;53.590;9.922;2022-11-20T23:04:33;4.70;57.20
44729;DHT22;30457;53.590;9.922;2022-11-20T23:08:58;4.80;57.50
44729;DHT22;30457;53.590;9.922;2022-11-20T23:13:24;4.70;57.60
44729;DHT22;30457;53.590;9.922;2022-11-20T23:17:49;4.70;57.60
44729;DHT22;30457;53.590;9.922;2022-11-20T23:22:15;4.60;57.40
44729;DHT22;30457;53.590;9.922;2022-11-20T23:26:40;4.60;57.40
44729;DHT22;30457;53.590;9.922;2022-11-20T23:31:07;4.60;57.30
44729;DHT22;30457;53.590;9.922;2022-11-20T23:35:37;4.60;57.20
44729;DHT22;30457;53.590;9.922;2022-11-20T23:40:04;4.50;57.20
44729;DHT22;30457;53.590;9.922;2022-11-20T23:44:30;4.50;57.10
44729;DHT22;30457;53.590;9.922;2022-11-20T23:48:56;4.40;57.10
44729;DHT22;30457;53.590;9.922;2022-11-20T23:53:22;4.40;57.10
44729;DHT22;30457;53.590;9.922;2022-11-20T23:57:49;4.40;57.10
